Airfield :
LOGIN :

Register | Disclaimer

   EN    FR    IT 

 










Legend :    VFR   Marginal VFR   IFR   Intensive IFR   Very Intensive IFR
Visi :
Ceiling :
>= 8 km
>= 3000ft
5 to 8 km
1000 to 3000 ft
1500m to 5 km
500 to 1000 ft
800 to 1500m
200 to 500 ft
< 800m
< 200 ft
Symbols :   Thunderstorms  Fog  Heavy snow  Heavy precipitations  Wind > 20 kt
SIGMETs :     Misc.  Thunderstorms  Icing  Turbulence  Mountain Waves  Volcanic Ashes






- Airport Elevation : 1090 ft
- IATA code : CFE


LFLC - Clermont-Ferrand Auvergne

CURRENT METAR :
  • 162000Z AUTO 18018KT CAVOK 13/06 Q1019 TEMPO 18020G30KT

EXPIRED METARs :
  • 161930Z AUTO 18020KT CAVOK 14/06 Q1018 TEMPO 18020G30KT
  • 161900Z AUTO 18019KT CAVOK 14/06 Q1018
  • 161830Z AUTO 18016KT CAVOK 14/06 Q1018 TEMPO 18020G30KT
  • 161800Z AUTO 18016KT CAVOK 15/06 Q1018 TEMPO 18020G30KT
  • 161730Z AUTO 18015KT CAVOK 15/06 Q1018 TEMPO 18020G30KT
  • 161700Z AUTO 18018KT CAVOK 15/07 Q1017 TEMPO 18020G30KT

TAF TAF LFLC
Valid from the 16 at 15:00 until the 17 at 15:00 UTC


161400Z 1615/1715 18015KT CAVOK
TEMPO 1615/1703 18020G30KT
BECMG 1707/1709 -RA OVC040
BECMG 1711/1713 33007KT
ATIS : +33 4 73 62 74 38



MET'MAP, your aeronautical weather chart ! - Copyright ORBIFLY December 2007 - Disclaimer

ORBIFLY MET'MAP TEAM :

Programming & Development : Alexandra Zaïnal
Concept & original design : Baudouin d'Aumeries
Assistance for programming : Marc-Olivier Méhu
Technical & hardware support : Manuel Goepfert

Contact : metmap@orbifly.com




SOURCES & CREDITS :

   NOAA